Time;durP1;ratioP1;P1;durP2;ratioP2;P2;SDS_P1;SDS_P2;PMS_P1;PMS_P2;Temp;Humidity;BMP_temperature;BMP_pressure;BME280_temperature;BME280_humidity;BME280_pressure;Samples;Min_cycle;Max_cycle;Signal;HPM_P1;HPM_P2
2023/11/16 00:02:15;;;;;;;9.30;4.97;;;;;;;10.06;92.43;100245.50;4995716;28;20203;-84
2023/11/16 00:04:43;;;;;;;5.33;4.80;;;;;;;10.06;91.48;100252.50;4996528;28;20266;-84
2023/11/16 00:07:10;;;;;;;8.47;4.47;;;;;;;9.96;91.36;100269.22;4995821;28;20306;-84
2023/11/16 00:09:37;;;;;;;5.83;4.43;;;;;;;10.20;91.02;100268.72;4997023;28;20207;-84
2023/11/16 00:12:04;;;;;;;6.63;4.50;;;;;;;10.25;90.09;100279.94;4996143;28;20204;-84
2023/11/16 00:14:31;;;;;;;12.40;5.13;;;;;;;10.32;89.85;100291.13;4996227;28;20207;-86
2023/11/16 00:16:58;;;;;;;4.57;4.07;;;;;;;10.36;89.68;100294.53;4988359;28;20228;-87
2023/11/16 00:19:25;;;;;;;8.50;3.87;;;;;;;10.09;88.74;100326.31;4996232;28;20212;-83
2023/11/16 00:21:51;;;;;;;6.03;3.60;;;;;;;10.07;90.08;100312.44;4995263;28;20593;-86
2023/11/16 00:24:20;;;;;;;6.00;4.00;;;;;;;10.26;89.46;100312.09;4995525;28;20678;-84
2023/11/16 00:26:50;;;;;;;8.60;3.87;;;;;;;10.27;89.11;100314.66;4995986;28;20283;-83
2023/11/16 00:29:18;;;;;;;5.53;3.50;;;;;;;10.20;88.50;100313.06;5018701;23;20397;-82
2023/11/16 00:31:45;;;;;;;6.27;3.60;;;;;;;10.18;88.70;100314.84;4990763;28;20230;-83
2023/11/16 00:34:11;;;;;;;7.03;3.57;;;;;;;10.25;88.67;100303.41;4979368;28;20847;-83
2023/11/16 00:36:39;;;;;;;6.13;3.70;;;;;;;10.16;88.84;100303.56;4995257;28;20221;-85
2023/11/16 00:39:07;;;;;;;6.83;3.20;;;;;;;10.09;88.95;100302.84;4995657;28;20228;-82
2023/11/16 00:41:36;;;;;;;10.70;3.33;;;;;;;10.07;89.18;100309.00;4995783;28;20203;-82
2023/11/16 00:44:05;;;;;;;4.47;3.10;;;;;;;9.86;89.79;100289.38;4995895;28;20203;-83
2023/11/16 00:46:32;;;;;;;4.47;3.20;;;;;;;9.96;89.45;100275.28;4995559;28;20594;-83
2023/11/16 00:48:58;;;;;;;7.90;3.03;;;;;;;10.06;89.85;100262.91;4985943;28;20208;-84
2023/11/16 00:51:25;;;;;;;6.23;2.87;;;;;;;10.12;89.49;100262.78;4987647;28;20215;-84
2023/11/16 00:53:51;;;;;;;6.53;3.23;;;;;;;10.12;89.14;100284.50;4986342;28;20291;-82
2023/11/16 00:56:18;;;;;;;5.43;3.57;;;;;;;10.12;88.51;100294.09;4994512;28;20589;-82
2023/11/16 00:58:47;;;;;;;7.37;3.40;;;;;;;10.18;88.46;100293.13;4995219;28;20258;-83
2023/11/16 01:01:15;;;;;;;5.83;3.50;;;;;;;10.26;88.00;100296.44;4983207;28;20230;-83
2023/11/16 01:03:42;;;;;;;5.30;2.90;;;;;;;9.97;88.75;100303.09;4983789;28;20575;-83
2023/11/16 01:06:09;;;;;;;7.93;3.77;;;;;;;10.08;89.19;100293.28;4987533;28;20294;-79
2023/11/16 01:08:36;;;;;;;6.17;3.27;;;;;;;10.12;88.21;100297.56;4994523;28;20196;-83
2023/11/16 01:11:03;;;;;;;5.27;2.67;;;;;;;10.10;87.67;100314.13;4995085;28;20235;-82
2023/11/16 01:13:38;;;;;;;5.53;2.80;;;;;;;9.94;87.58;100318.78;4995926;28;20214;-83
2023/11/16 01:16:09;;;;;;;4.67;2.70;;;;;;;10.07;87.68;100306.38;4995294;28;20247;-84
2023/11/16 01:18:38;;;;;;;7.07;3.07;;;;;;;9.88;87.15;100326.72;4988924;28;20286;-81
2023/11/16 01:21:08;;;;;;;6.07;3.43;;;;;;;10.02;87.41;100321.25;4985195;28;20219;-84
2023/11/16 01:23:35;;;;;;;7.10;3.27;;;;;;;10.00;87.75;100320.41;4994571;28;20214;-83
2023/11/16 01:26:03;;;;;;;5.93;3.17;;;;;;;10.16;87.39;100318.38;4986446;28;20206;-82
2023/11/16 01:28:32;;;;;;;5.47;3.13;;;;;;;10.32;87.01;100312.84;4994329;28;20290;-82
2023/11/16 01:31:03;;;;;;;4.67;3.47;;;;;;;10.14;86.76;100323.63;4993050;28;20234;-82
2023/11/16 01:33:30;;;;;;;3.50;3.10;;;;;;;10.15;87.10;100333.16;4988529;28;20213;-82
2023/11/16 01:35:58;;;;;;;8.60;3.60;;;;;;;9.96;87.91;100316.13;4994331;28;20216;-81
2023/11/16 01:38:24;;;;;;;8.03;3.77;;;;;;;10.06;87.76;100305.50;4994168;28;20274;-82
2023/11/16 01:40:51;;;;;;;6.23;3.60;;;;;;;10.22;87.26;100295.63;4994087;28;20234;-82
2023/11/16 01:43:17;;;;;;;5.67;3.80;;;;;;;10.04;86.58;100306.44;4986225;28;20237;-83
2023/11/16 01:45:44;;;;;;;5.10;3.37;;;;;;;10.17;86.83;100314.84;4994036;28;20207;-82
2023/11/16 01:48:10;;;;;;;5.53;3.20;;;;;;;9.93;86.96;100333.56;4994075;28;20211;-82
2023/11/16 01:50:39;;;;;;;7.53;3.40;;;;;;;10.23;86.90;100320.00;4993986;28;20239;-82
2023/11/16 01:53:10;;;;;;;6.83;3.40;;;;;;;10.21;86.54;100332.16;4993112;28;20703;-83
2023/11/16 01:55:40;;;;;;;6.23;3.63;;;;;;;10.26;86.25;100332.94;4987710;28;20231;-84
2023/11/16 01:58:06;;;;;;;6.33;3.70;;;;;;;10.16;86.60;100342.69;4991794;28;20227;-83
2023/11/16 02:00:34;;;;;;;5.67;3.30;;;;;;;10.21;86.11;100346.09;4993562;28;20235;-83
2023/11/16 02:03:03;;;;;;;5.57;3.43;;;;;;;10.22;86.22;100344.34;4993097;28;20218;-82
2023/11/16 02:05:32;;;;;;;5.40;3.17;;;;;;;10.07;86.33;100351.56;4993342;28;20666;-81
2023/11/16 02:08:01;;;;;;;7.47;3.10;;;;;;;10.05;86.37;100348.13;4989880;28;20210;-83
2023/11/16 02:10:30;;;;;;;4.70;3.30;;;;;;;10.14;86.18;100328.81;4993771;28;20231;-82
2023/11/16 02:12:57;;;;;;;5.37;3.20;;;;;;;10.30;85.92;100330.28;4993349;28;20235;-82
2023/11/16 02:15:25;;;;;;;5.60;3.37;;;;;;;10.18;85.19;100347.91;4992921;28;20207;-83
2023/11/16 02:17:51;;;;;;;5.53;3.43;;;;;;;10.30;85.33;100358.13;4992942;28;20211;-84
2023/11/16 02:20:20;;;;;;;10.40;3.70;;;;;;;10.22;85.85;100350.41;4993440;28;20237;-82
2023/11/16 02:22:51;;;;;;;6.17;3.60;;;;;;;10.24;85.99;100343.41;4992374;28;20250;-82
2023/11/16 02:25:19;;;;;;;8.27;3.93;;;;;;;10.29;86.01;100341.59;4985289;28;20587;-83
2023/11/16 02:27:46;;;;;;;5.67;3.63;;;;;;;10.10;86.14;100348.88;4992839;28;20206;-83
2023/11/16 02:30:13;;;;;;;8.23;3.77;;;;;;;10.11;86.49;100331.50;4992945;28;20686;-82
2023/11/16 02:32:40;;;;;;;8.70;3.50;;;;;;;9.92;86.57;100344.88;4992699;28;20215;-82
2023/11/16 02:35:08;;;;;;;6.97;4.33;;;;;;;10.12;87.02;100325.38;4993066;28;20218;-83
2023/11/16 02:37:35;;;;;;;9.33;3.87;;;;;;;9.97;87.49;100329.16;4992175;28;20675;-83
2023/11/16 02:40:04;;;;;;;5.23;3.47;;;;;;;10.10;87.40;100308.91;4992704;28;20235;-83
2023/11/16 02:42:32;;;;;;;5.33;3.43;;;;;;;10.00;87.63;100313.44;4992963;28;20218;-83
2023/11/16 02:44:58;;;;;;;7.50;3.90;;;;;;;9.91;87.86;100304.06;4993319;28;20214;-82
2023/11/16 02:47:25;;;;;;;10.70;3.53;;;;;;;9.91;88.00;100297.94;4992693;28;20234;-82
2023/11/16 02:49:51;;;;;;;8.27;3.80;;;;;;;10.14;87.71;100293.16;4992643;28;20223;-84
2023/11/16 02:52:17;;;;;;;7.20;3.50;;;;;;;10.16;87.04;100300.97;4991981;28;20204;-82
2023/11/16 02:54:44;;;;;;;5.67;3.43;;;;;;;9.72;88.01;100292.22;4993118;28;20218;-82
2023/11/16 02:57:10;;;;;;;7.23;3.50;;;;;;;9.71;87.33;100287.88;4990914;28;20690;-84
2023/11/16 02:59:38;;;;;;;7.60;4.07;;;;;;;9.72;88.18;100277.44;4987177;28;20622;-82
2023/11/16 03:02:07;;;;;;;5.10;3.40;;;;;;;9.61;87.61;100286.34;4984693;28;20211;-82
2023/11/16 03:04:34;;;;;;;6.43;3.23;;;;;;;9.79;87.40;100296.47;4992951;28;20207;-84
2023/11/16 03:07:00;;;;;;;9.53;3.77;;;;;;;9.97;87.49;100283.94;4992159;28;20215;-81
2023/11/16 03:09:27;;;;;;;4.40;3.33;;;;;;;9.80;87.26;100297.31;4992713;28;20710;-82
2023/11/16 03:11:54;;;;;;;5.00;3.00;;;;;;;9.98;87.28;100304.78;4992590;28;20211;-82
2023/11/16 03:14:20;;;;;;;5.43;3.23;;;;;;;9.85;87.33;100293.75;4994656;28;20729;-82
2023/11/16 03:16:49;;;;;;;5.37;3.27;;;;;;;9.97;87.29;100300.47;4996609;28;20214;-82
2023/11/16 03:19:16;;;;;;;8.43;3.50;;;;;;;9.93;87.22;100304.03;4988372;28;20243;-82
2023/11/16 03:21:42;;;;;;;5.07;3.17;;;;;;;10.00;87.38;100295.19;4995651;28;20207;-83
2023/11/16 03:24:10;;;;;;;6.93;3.20;;;;;;;9.74;86.88;100303.50;4988665;28;20210;-82
2023/11/16 03:26:36;;;;;;;5.57;3.77;;;;;;;9.77;87.78;100289.53;4996510;28;20247;-81
2023/11/16 03:29:04;;;;;;;5.23;3.60;;;;;;;9.80;87.46;100279.06;4988261;28;20208;-82
2023/11/16 03:31:33;;;;;;;6.50;3.00;;;;;;;9.83;87.53;100273.78;4989687;28;20218;-82
2023/11/16 03:34:01;;;;;;;4.57;3.43;;;;;;;9.86;87.45;100279.81;4996411;28;20820;-84
2023/11/16 03:36:27;;;;;;;7.67;3.00;;;;;;;9.60;87.22;100293.31;4988009;28;20208;-82
2023/11/16 03:38:54;;;;;;;6.40;3.17;;;;;;;9.87;86.61;100298.91;4995966;28;20249;-80
2023/11/16 03:41:21;;;;;;;8.07;3.30;;;;;;;9.92;86.59;100302.28;4988193;28;20756;-82
2023/11/16 03:43:47;;;;;;;7.70;4.63;;;;;;;9.81;86.80;100302.50;4996645;28;20215;-82
2023/11/16 03:46:14;;;;;;;5.73;3.83;;;;;;;9.75;86.75;100299.97;4995525;28;20209;-81
2023/11/16 03:48:40;;;;;;;3.57;3.03;;;;;;;9.61;86.37;100317.63;4996107;28;20214;-84
2023/11/16 03:51:08;;;;;;;8.23;3.63;;;;;;;9.76;86.90;100304.31;4987891;28;20644;-83
2023/11/16 03:53:36;;;;;;;5.90;4.10;;;;;;;9.81;87.64;100296.41;4988087;28;20226;-83
2023/11/16 03:56:04;;;;;;;4.67;3.40;;;;;;;9.83;86.70;100303.34;4995760;28;20213;-82
2023/11/16 03:58:30;;;;;;;5.77;3.37;;;;;;;9.67;87.73;100284.50;4988281;28;20699;-82
2023/11/16 04:00:57;;;;;;;5.00;3.67;;;;;;;9.71;86.83;100286.16;4995765;28;20281;-82
2023/11/16 04:03:23;;;;;;;5.00;3.53;;;;;;;9.68;86.73;100295.78;4995892;28;20272;-83
2023/11/16 04:05:50;;;;;;;9.47;3.90;;;;;;;9.81;86.77;100289.47;4995784;28;20209;-83
2023/11/16 04:08:18;;;;;;;4.13;3.43;;;;;;;9.62;86.58;100295.88;4995360;28;20215;-82
2023/11/16 04:10:45;;;;;;;4.70;3.87;;;;;;;9.78;86.42;100307.75;4996231;28;20237;-82
2023/11/16 04:13:11;;;;;;;4.97;3.97;;;;;;;9.69;86.80;100307.91;4995533;28;20230;-81
2023/11/16 04:15:38;;;;;;;6.40;4.40;;;;;;;9.40;87.13;100317.09;4996530;28;20204;-82
2023/11/16 04:18:06;;;;;;;5.60;3.90;;;;;;;9.59;87.88;100288.97;4995249;28;20211;-82
2023/11/16 04:20:34;;;;;;;6.93;3.60;;;;;;;9.48;86.92;100293.53;4995390;28;20227;-83
2023/11/16 04:23:00;;;;;;;4.67;3.90;;;;;;;9.76;86.89;100293.91;4994714;28;20706;-83
2023/11/16 04:25:29;;;;;;;6.17;4.67;;;;;;;9.69;86.54;100306.19;4984138;28;20572;-83
2023/11/16 04:27:59;;;;;;;9.30;4.50;;;;;;;9.43;87.04;100317.03;4990719;28;20207;-85
2023/11/16 04:30:26;;;;;;;8.17;4.17;;;;;;;9.70;87.15;100281.81;4994837;28;20621;-82
2023/11/16 04:32:53;;;;;;;8.73;4.73;;;;;;;9.72;86.83;100289.63;4995416;28;20211;-82
2023/11/16 04:35:21;;;;;;;8.53;6.07;;;;;;;9.80;86.93;100289.50;4994699;28;20207;-83
2023/11/16 04:37:48;;;;;;;5.50;4.83;;;;;;;9.73;86.57;100291.31;4994126;28;20659;-86
2023/11/16 04:40:14;;;;;;;8.33;4.33;;;;;;;9.67;86.88;100292.31;4994869;28;20231;-81
2023/11/16 04:42:43;;;;;;;5.03;4.07;;;;;;;9.43;86.89;100298.78;4995051;28;20214;-83
2023/11/16 04:45:11;;;;;;;6.30;3.53;;;;;;;9.69;87.00;100284.44;4995151;28;20215;-84
2023/11/16 04:47:39;;;;;;;6.43;3.73;;;;;;;9.78;86.10;100294.72;4995034;28;20212;-82
2023/11/16 04:50:07;;;;;;;5.90;3.93;;;;;;;9.57;85.73;100314.19;4994656;28;20220;-84
2023/11/16 04:52:34;;;;;;;4.43;3.63;;;;;;;9.85;85.65;100309.38;4993691;28;20238;-82
2023/11/16 04:55:01;;;;;;;4.00;2.63;;;;;;;9.76;85.20;100319.09;4994689;28;20945;-83
2023/11/16 04:57:28;;;;;;;7.03;2.90;;;;;;;9.90;84.85;100344.03;4994238;28;20218;-82
2023/11/16 04:59:56;;;;;;;4.77;2.60;;;;;;;9.92;84.58;100346.63;4994362;28;20770;-82
2023/11/16 05:02:23;;;;;;;5.90;3.03;;;;;;;10.01;84.45;100348.19;4994160;28;20272;-83
2023/11/16 05:04:50;;;;;;;4.70;2.37;;;;;;;9.94;84.10;100353.53;4994647;28;20215;-82
2023/11/16 05:07:17;;;;;;;3.17;2.27;;;;;;;9.80;83.87;100367.69;4993361;28;20207;-81
2023/11/16 05:09:43;;;;;;;2.67;1.80;;;;;;;9.56;84.57;100372.41;4994910;28;20268;-83
2023/11/16 05:12:10;;;;;;;5.20;2.20;;;;;;;9.56;84.89;100354.19;4994167;28;20218;-82
2023/11/16 05:14:36;;;;;;;4.57;2.50;;;;;;;9.52;85.39;100350.75;4994625;28;20686;-82
2023/11/16 05:17:05;;;;;;;4.57;2.60;;;;;;;9.71;85.50;100342.63;4993823;28;20207;-82
2023/11/16 05:19:31;;;;;;;4.13;2.43;;;;;;;9.61;84.93;100354.94;4994115;28;20232;-83
2023/11/16 05:21:57;;;;;;;4.30;2.43;;;;;;;9.57;85.35;100361.09;4993602;28;20230;-82
2023/11/16 05:24:25;;;;;;;4.63;1.90;;;;;;;9.66;85.43;100334.91;4994300;28;20208;-82
2023/11/16 05:26:52;;;;;;;3.73;2.30;;;;;;;9.71;85.03;100338.28;4993847;28;20253;-81
2023/11/16 05:29:18;;;;;;;3.83;2.37;;;;;;;9.82;84.55;100358.09;4993587;28;20243;-82
2023/11/16 05:31:48;;;;;;;7.13;3.00;;;;;;;9.76;85.19;100353.00;4993990;28;20214;-82
2023/11/16 05:34:16;;;;;;;3.47;2.50;;;;;;;9.49;85.13;100348.22;4993898;28;20203;-84
2023/11/16 05:36:43;;;;;;;3.47;3.00;;;;;;;9.43;86.63;100339.63;4992771;28;20222;-82
2023/11/16 05:39:10;;;;;;;3.20;2.47;;;;;;;9.71;85.92;100334.81;4993617;28;20615;-82
2023/11/16 05:41:36;;;;;;;2.40;2.03;;;;;;;9.57;86.04;100329.81;4993978;28;20211;-85
2023/11/16 05:44:03;;;;;;;4.33;2.67;;;;;;;9.69;86.51;100315.72;4994091;28;20211;-82
2023/11/16 05:46:32;;;;;;;4.67;3.13;;;;;;;9.65;86.31;100314.94;4993593;28;20211;-83
2023/11/16 05:48:58;;;;;;;3.20;2.90;;;;;;;9.64;86.34;100323.63;4993388;28;20242;-82
2023/11/16 05:51:26;;;;;;;5.73;2.90;;;;;;;9.37;87.52;100309.31;4993667;28;20208;-82
2023/11/16 05:53:52;;;;;;;6.27;3.63;;;;;;;9.43;88.22;100296.19;4993705;28;20207;-82
2023/11/16 05:56:20;;;;;;;6.57;3.17;;;;;;;9.62;88.22;100278.50;4993604;28;20218;-82
2023/11/16 05:58:49;;;;;;;4.97;2.53;;;;;;;9.25;89.08;100268.69;4993723;28;20299;-83
2023/11/16 06:01:15;;;;;;;5.63;2.80;;;;;;;9.37;88.60;100274.59;4992799;28;20709;-83
2023/11/16 06:03:41;;;;;;;4.63;3.00;;;;;;;9.20;89.82;100259.25;4993345;28;20204;-82
2023/11/16 06:06:08;;;;;;;6.77;3.30;;;;;;;9.15;90.22;100257.56;4992948;28;20210;-83
2023/11/16 06:08:39;;;;;;;3.87;3.43;;;;;;;8.99;92.29;100219.66;4994063;28;20207;-82
2023/11/16 06:11:08;;;;;;;4.10;3.10;;;;;;;8.75;94.34;100192.25;4993610;28;20714;-84
2023/11/16 06:13:34;;;;;;;6.23;4.00;;;;;;;8.81;95.84;100150.53;4993032;28;20290;-82
2023/11/16 06:16:02;;;;;;;5.13;2.93;;;;;;;9.01;95.54;100124.16;4993097;28;20215;-84
2023/11/16 06:18:28;;;;;;;3.47;2.63;;;;;;;8.82;96.96;100105.41;4993415;28;20245;-83
2023/11/16 06:20:54;;;;;;;4.10;3.70;;;;;;;9.09;95.88;100097.97;4993027;28;20237;-83
2023/11/16 06:23:21;;;;;;;8.37;3.20;;;;;;;8.76;97.47;100095.09;4993624;28;20218;-82
2023/11/16 06:25:49;;;;;;;4.73;2.70;;;;;;;8.63;98.85;100077.97;4993640;28;20689;-82
2023/11/16 06:28:15;;;;;;;3.37;2.57;;;;;;;8.65;98.62;100074.47;4992707;28;20203;-82
2023/11/16 06:30:42;;;;;;;4.37;2.87;;;;;;;8.74;100.00;100043.09;5053855;23;20241;-84
2023/11/16 06:33:08;;;;;;;3.80;2.57;;;;;;;8.73;99.78;100040.50;5013158;28;20215;-84
2023/11/16 06:35:34;;;;;;;4.83;2.43;;;;;;;8.87;99.23;100048.91;5008724;28;20203;-84
2023/11/16 06:38:01;;;;;;;6.40;2.20;;;;;;;8.81;98.51;100063.78;5028457;28;20210;-85
2023/11/16 06:40:28;;;;;;;2.53;1.70;;;;;;;8.50;99.26;100080.78;5022725;28;20246;-83
2023/11/16 06:42:56;;;;;;;2.57;1.63;;;;;;;8.72;99.29;100060.47;4990119;28;20212;-84
2023/11/16 06:45:24;;;;;;;4.33;1.70;;;;;;;8.83;98.03;100075.03;4993064;28;20262;-84
2023/11/16 06:47:51;;;;;;;5.23;1.67;;;;;;;8.66;96.91;100094.41;4983711;28;20212;-84
2023/11/16 06:50:18;;;;;;;2.67;1.23;;;;;;;8.50;97.39;100100.72;4979741;28;20224;-84
2023/11/16 06:52:45;;;;;;;3.33;1.37;;;;;;;8.73;95.78;100119.41;4979342;28;20208;-85
2023/11/16 06:55:13;;;;;;;2.90;1.20;;;;;;;8.58;92.85;100176.88;4977261;28;20211;-84
2023/11/16 06:57:41;;;;;;;2.40;1.27;;;;;;;8.89;91.60;100208.50;4994000;28;20216;-83
2023/11/16 07:00:14;;;;;;;3.10;1.13;;;;;;;8.49;92.17;100235.13;4986571;28;20231;-84
2023/11/16 07:02:43;;;;;;;1.40;0.80;;;;;;;8.55;88.03;100281.88;4982487;28;20210;-83
2023/11/16 07:05:10;;;;;;;1.83;0.80;;;;;;;8.35;85.17;100354.06;4990442;28;20297;-82
2023/11/16 07:07:37;;;;;;;5.57;0.93;;;;;;;8.34;85.59;100391.34;4993680;28;20227;-82
2023/11/16 07:10:04;;;;;;;2.97;0.60;;;;;;;8.34;85.73;100396.53;4998020;28;20227;-82
2023/11/16 07:12:32;;;;;;;1.20;0.63;;;;;;;8.22;86.13;100425.28;4997784;28;20242;-83
2023/11/16 07:14:58;;;;;;;3.07;0.70;;;;;;;8.12;87.17;100417.53;4997677;28;20207;-83
2023/11/16 07:17:26;;;;;;;1.10;0.60;;;;;;;8.10;86.57;100413.25;4997142;28;20207;-83
2023/11/16 07:19:53;;;;;;;2.07;0.67;;;;;;;8.21;86.45;100416.63;4998669;28;20223;-83
2023/11/16 07:22:20;;;;;;;1.97;0.83;;;;;;;8.44;85.16;100433.75;4997772;28;20204;-83
2023/11/16 07:24:47;;;;;;;1.60;0.50;;;;;;;8.14;85.25;100462.59;4999601;28;20238;-84
2023/11/16 07:27:13;;;;;;;1.10;0.60;;;;;;;8.26;84.51;100472.03;4992764;28;20235;-84
2023/11/16 07:29:42;;;;;;;1.03;0.50;;;;;;;8.18;84.86;100480.78;5009613;28;20223;-83
2023/11/16 07:32:09;;;;;;;8.07;1.00;;;;;;;8.01;85.56;100489.59;4998109;28;20680;-82
2023/11/16 07:34:39;;;;;;;1.40;0.60;;;;;;;8.00;85.86;100492.19;4998362;28;20207;-83
2023/11/16 07:37:06;;;;;;;2.63;0.83;;;;;;;8.08;86.16;100462.66;4991123;28;20670;-80
2023/11/16 07:39:32;;;;;;;2.80;0.90;;;;;;;8.22;84.98;100485.06;4998124;28;20722;-83
2023/11/16 07:41:59;;;;;;;0.93;0.70;;;;;;;8.37;85.11;100489.28;4984914;28;20663;-82
2023/11/16 07:44:25;;;;;;;0.90;0.77;;;;;;;8.61;84.86;100502.09;4998421;28;20219;-83
2023/11/16 07:46:52;;;;;;;1.80;0.70;;;;;;;8.71;84.31;100513.28;5000566;28;20208;-83
2023/11/16 07:49:19;;;;;;;3.03;0.87;;;;;;;8.34;83.42;100536.97;4999927;28;20203;-83
2023/11/16 07:51:47;;;;;;;1.57;0.87;;;;;;;8.40;83.67;100536.94;4983085;28;20211;-80
2023/11/16 07:54:15;;;;;;;2.73;0.97;;;;;;;8.17;83.36;100552.72;4984484;28;20211;-81
2023/11/16 07:56:45;;;;;;;1.90;0.50;;;;;;;8.50;82.67;100566.34;4988823;28;20212;-84
2023/11/16 07:59:18;;;;;;;4.23;0.67;;;;;;;8.34;81.87;100589.00;4971395;28;20200;-83
2023/11/16 08:01:50;;;;;;;1.80;0.60;;;;;;;8.52;81.44;100601.03;4990129;28;20277;-85
2023/11/16 08:04:15;;;;;;;2.07;0.60;;;;;;;8.12;82.52;100599.53;4998338;28;20646;-82
2023/11/16 08:06:43;;;;;;;1.13;0.50;;;;;;;8.10;83.00;100596.09;4989556;28;20242;-84
2023/11/16 08:09:10;;;;;;;1.13;0.60;;;;;;;8.18;82.36;100587.38;4992617;28;20629;-84
2023/11/16 08:11:37;;;;;;;2.33;0.60;;;;;;;8.04;83.22;100577.94;4993423;28;20714;-81
2023/11/16 08:14:06;;;;;;;2.33;0.50;;;;;;;8.07;82.55;100570.13;5007365;28;20200;-82
2023/11/16 08:16:34;;;;;;;3.20;0.63;;;;;;;8.40;81.74;100588.94;4997558;28;20246;-82
2023/11/16 08:19:03;;;;;;;2.40;0.60;;;;;;;8.12;82.62;100583.94;4985825;28;20658;-84
2023/11/16 08:21:30;;;;;;;2.43;0.70;;;;;;;8.31;82.41;100589.88;4992259;28;20228;-81
2023/11/16 08:23:57;;;;;;;2.57;0.57;;;;;;;8.17;81.82;100594.34;4974564;28;20666;-83
2023/11/16 08:26:26;;;;;;;2.30;0.60;;;;;;;8.12;82.59;100588.28;4988866;28;20230;-83
2023/11/16 08:28:53;;;;;;;1.87;0.40;;;;;;;7.93;81.49;100590.16;4996980;28;20204;-84
2023/11/16 08:31:19;;;;;;;2.00;0.90;;;;;;;7.82;83.22;100579.78;4983261;28;20302;-85
2023/11/16 08:33:49;;;;;;;3.07;0.70;;;;;;;7.75;84.06;100557.34;4998536;28;20201;-84
2023/11/16 08:36:16;;;;;;;0.83;0.40;;;;;;;7.88;83.60;100538.19;4998056;28;20204;-83
2023/11/16 08:38:45;;;;;;;1.80;0.60;;;;;;;7.78;84.21;100535.66;4987203;28;20216;-83
2023/11/16 08:41:15;;;;;;;2.90;0.57;;;;;;;7.78;84.32;100514.88;4989877;28;20644;-82
2023/11/16 08:43:43;;;;;;;3.37;0.50;;;;;;;7.87;84.76;100494.88;4994201;28;20264;-84
2023/11/16 08:46:11;;;;;;;1.43;0.40;;;;;;;7.83;84.77;100487.09;4992170;28;20214;-82
2023/11/16 08:48:43;;;;;;;1.90;0.50;;;;;;;8.04;85.07;100479.16;4997279;28;20235;-83
2023/11/16 08:51:12;;;;;;;0.70;0.30;;;;;;;8.08;84.26;100493.00;4996848;28;20223;-82
2023/11/16 08:53:39;;;;;;;3.90;0.50;;;;;;;8.01;83.94;100505.19;4997478;28;20222;-84
2023/11/16 08:56:07;;;;;;;2.70;0.30;;;;;;;7.98;83.72;100504.34;4988520;28;20202;-83
2023/11/16 08:58:36;;;;;;;2.47;0.40;;;;;;;8.08;82.26;100522.44;4988489;28;20645;-85
2023/11/16 09:01:05;;;;;;;2.00;0.30;;;;;;;8.00;82.77;100531.19;4988512;28;20239;-83
2023/11/16 09:03:33;;;;;;;2.87;0.50;;;;;;;8.14;83.17;100532.78;4996515;28;20234;-83
2023/11/16 09:06:02;;;;;;;3.47;0.67;;;;;;;8.03;83.64;100539.81;4978063;28;20255;-80
2023/11/16 09:08:29;;;;;;;1.07;0.50;;;;;;;8.25;82.72;100547.47;4993897;28;20203;-83
2023/11/16 09:10:55;;;;;;;2.20;0.40;;;;;;;8.28;82.69;100555.22;4976994;28;20220;-83
2023/11/16 09:13:23;;;;;;;1.93;0.50;;;;;;;8.28;82.76;100553.50;4989904;28;20214;-83
2023/11/16 09:15:50;;;;;;;1.47;0.47;;;;;;;8.24;81.80;100582.13;4993367;28;20297;-84
2023/11/16 09:18:19;;;;;;;2.87;0.50;;;;;;;8.15;80.46;100614.28;4992183;28;20216;-82
2023/11/16 09:20:46;;;;;;;2.30;0.67;;;;;;;8.30;80.71;100627.16;4993321;28;20235;-82
2023/11/16 09:23:14;;;;;;;0.70;0.27;;;;;;;8.47;79.54;100649.66;4968299;28;20204;-83
2023/11/16 09:25:41;;;;;;;0.40;0.40;;;;;;;8.46;79.03;100672.22;4986229;28;20216;-82
2023/11/16 09:28:11;;;;;;;1.30;0.80;;;;;;;8.47;78.57;100707.75;4977236;28;20200;-82
2023/11/16 09:30:39;;;;;;;3.40;0.40;;;;;;;8.50;76.98;100720.75;4977037;28;20270;-83
2023/11/16 09:33:09;;;;;;;1.30;0.53;;;;;;;8.82;77.07;100740.50;4976754;28;20204;-83
2023/11/16 09:35:38;;;;;;;3.37;0.80;;;;;;;9.10;76.41;100758.50;5006643;28;20211;-87
2023/11/16 09:38:08;;;;;;;1.33;0.57;;;;;;;8.94;75.01;100781.19;5000195;28;20239;-83
2023/11/16 09:40:35;;;;;;;1.70;0.97;;;;;;;9.01;75.32;100802.84;5006626;28;20211;-87
2023/11/16 09:43:16;;;;;;;1.23;0.60;;;;;;;9.09;75.04;100801.91;5003830;28;20215;-84
2023/11/16 09:45:47;;;;;;;1.37;0.40;;;;;;;8.46;74.88;100832.59;4981462;28;20204;-82
2023/11/16 09:48:14;;;;;;;1.07;0.60;;;;;;;8.52;74.52;100828.25;4996153;28;20208;-83
2023/11/16 09:50:44;;;;;;;1.20;0.60;;;;;;;8.70;74.75;100844.66;4993303;28;20737;-84
2023/11/16 09:53:14;;;;;;;1.17;0.60;;;;;;;8.58;75.47;100832.53;4989048;28;20201;-83
2023/11/16 09:55:42;;;;;;;2.10;0.60;;;;;;;8.53;76.03;100801.34;4972767;28;20220;-83
2023/11/16 09:58:17;;;;;;;1.13;0.50;;;;;;;8.50;75.63;100803.09;4991788;28;20196;-81
2023/11/16 10:00:48;;;;;;;0.60;0.50;;;;;;;8.57;75.02;100807.41;4994408;28;20235;-85
2023/11/16 10:03:24;;;;;;;2.57;0.53;;;;;;;8.42;76.03;100803.13;4996625;28;20642;-83
2023/11/16 10:05:55;;;;;;;0.60;0.30;;;;;;;8.55;76.47;100762.34;4984593;28;20270;-84
2023/11/16 10:08:23;;;;;;;1.43;0.40;;;;;;;8.53;76.95;100759.72;4984180;28;20208;-84
2023/11/16 10:10:54;;;;;;;1.00;0.30;;;;;;;8.30;76.98;100757.19;4992214;28;20227;-84
2023/11/16 10:13:21;;;;;;;0.40;0.40;;;;;;;8.24;76.71;100754.63;4985495;28;20239;-84
2023/11/16 10:15:48;;;;;;;3.93;0.50;;;;;;;8.23;75.69;100747.72;4986217;28;20208;-84
2023/11/16 10:18:15;;;;;;;1.47;0.87;;;;;;;8.56;75.61;100745.84;4995991;28;20667;-83
2023/11/16 10:20:42;;;;;;;2.57;0.50;;;;;;;8.42;74.77;100763.25;4987285;28;20699;-84
2023/11/16 10:23:11;;;;;;;1.93;0.60;;;;;;;8.40;74.01;100799.66;4993828;28;20208;-84
2023/11/16 10:25:38;;;;;;;0.97;0.47;;;;;;;8.38;74.51;100805.72;4995743;28;20212;-84
2023/11/16 10:28:15;;;;;;;3.47;0.50;;;;;;;8.40;75.89;100784.03;4992414;28;20220;-83
2023/11/16 10:30:43;;;;;;;1.33;0.70;;;;;;;8.44;75.66;100775.38;4977856;28;20323;-87
2023/11/16 10:33:11;;;;;;;1.43;0.63;;;;;;;8.89;75.52;100756.91;4996142;28;20214;-83
2023/11/16 10:35:40;;;;;;;0.80;0.57;;;;;;;9.07;74.26;100769.78;4985966;28;20218;-86
2023/11/16 10:38:09;;;;;;;1.30;0.70;;;;;;;9.34;74.26;100786.09;4993456;28;20231;-82
2023/11/16 10:40:39;;;;;;;1.97;0.70;;;;;;;9.41;72.57;100808.59;4994407;28;20703;-83
2023/11/16 10:43:05;;;;;;;1.43;0.57;;;;;;;9.37;71.84;100847.72;4987687;28;20213;-84
2023/11/16 10:45:33;;;;;;;0.63;0.57;;;;;;;9.52;72.52;100848.47;4986682;28;20231;-85
2023/11/16 10:48:00;;;;;;;0.97;0.50;;;;;;;9.50;70.73;100865.84;4978182;28;20211;-84
2023/11/16 10:50:29;;;;;;;2.83;0.60;;;;;;;9.47;71.58;100899.75;4994230;28;20254;-85
2023/11/16 10:52:56;;;;;;;2.13;0.77;;;;;;;9.54;72.51;100884.94;4993430;28;20204;-83
2023/11/16 10:55:28;;;;;;;2.20;0.60;;;;;;;9.70;70.70;100896.13;4994129;28;20218;-84
2023/11/16 10:58:01;;;;;;;1.60;0.40;;;;;;;9.63;69.49;100918.78;4994815;28;20203;-83
2023/11/16 11:00:34;;;;;;;3.53;0.60;;;;;;;9.72;69.93;100920.44;4994663;28;20223;-84
2023/11/16 11:03:01;;;;;;;2.07;0.50;;;;;;;9.65;69.65;100930.06;4990517;28;20204;-81
2023/11/16 11:05:31;;;;;;;0.87;0.50;;;;;;;9.33;70.69;100944.13;4991231;28;20215;-81
2023/11/16 11:07:57;;;;;;;1.03;0.50;;;;;;;9.56;71.38;100906.66;4987287;28;20212;-83
2023/11/16 11:10:26;;;;;;;1.77;0.43;;;;;;;9.39;71.95;100890.25;4995154;28;20659;-84
2023/11/16 11:12:53;;;;;;;1.93;0.47;;;;;;;9.14;71.52;100878.25;4987922;28;20203;-84
2023/11/16 11:15:30;;;;;;;2.67;1.10;;;;;;;9.43;71.63;100864.16;4988223;28;20204;-81
2023/11/16 11:17:58;;;;;;;1.73;0.40;;;;;;;9.43;70.67;100860.69;4993789;28;20204;-81
2023/11/16 11:20:32;;;;;;;1.03;0.40;;;;;;;9.57;71.46;100863.19;4990941;28;20265;-83
2023/11/16 11:23:07;;;;;;;2.50;0.60;;;;;;;9.59;71.02;100871.88;4981537;28;20300;-82
2023/11/16 11:25:33;;;;;;;2.00;0.70;;;;;;;9.80;71.15;100863.03;4997354;28;20204;-82
2023/11/16 11:28:00;;;;;;;1.47;0.60;;;;;;;9.82;71.88;100851.69;4977365;28;20204;-81
2023/11/16 11:30:28;;;;;;;1.37;0.60;;;;;;;9.97;71.25;100849.81;4976121;28;20242;-83
2023/11/16 11:33:01;;;;;;;2.33;0.60;;;;;;;10.01;71.49;100849.78;4975492;28;20204;-82
2023/11/16 11:35:30;;;;;;;0.93;0.40;;;;;;;10.19;69.98;100864.38;4992950;28;20196;-85